sensor_id;sensor_type;location;lat;lon;timestamp;temperature;humidity
7388;DHT22;3735;50.136;11.062;2023-06-19T00:01:13;19.10;99.90
7388;DHT22;3735;50.136;11.062;2023-06-19T00:03:39;19.00;99.90
7388;DHT22;3735;50.136;11.062;2023-06-19T00:06:05;19.00;99.90
7388;DHT22;3735;50.136;11.062;2023-06-19T00:08:31;18.90;99.90
7388;DHT22;3735;50.136;11.062;2023-06-19T00:10:57;18.90;99.90
7388;DHT22;3735;50.136;11.062;2023-06-19T00:13:23;18.80;99.90
7388;DHT22;3735;50.136;11.062;2023-06-19T00:15:49;18.80;99.90
7388;DHT22;3735;50.136;11.062;2023-06-19T00:18:15;18.70;99.90
7388;DHT22;3735;50.136;11.062;2023-06-19T00:20:42;18.60;99.90
7388;DHT22;3735;50.136;11.062;2023-06-19T00:23:11;18.60;99.90
7388;DHT22;3735;50.136;11.062;2023-06-19T00:25:40;18.60;99.90
7388;DHT22;3735;50.136;11.062;2023-06-19T00:28:06;18.50;99.90
7388;DHT22;3735;50.136;11.062;2023-06-19T00:30:37;18.50;99.90
7388;DHT22;3735;50.136;11.062;2023-06-19T00:33:03;18.50;99.90
7388;DHT22;3735;50.136;11.062;2023-06-19T00:35:30;18.50;99.90
7388;DHT22;3735;50.136;11.062;2023-06-19T00:37:56;18.50;99.90
7388;DHT22;3735;50.136;11.062;2023-06-19T00:40:30;18.60;99.90
7388;DHT22;3735;50.136;11.062;2023-06-19T00:42:57;18.60;99.90
7388;DHT22;3735;50.136;11.062;2023-06-19T00:45:24;18.70;99.90
7388;DHT22;3735;50.136;11.062;2023-06-19T00:47:54;18.60;99.90
7388;DHT22;3735;50.136;11.062;2023-06-19T00:50:24;18.60;99.90
7388;DHT22;3735;50.136;11.062;2023-06-19T00:52:51;18.60;99.90
7388;DHT22;3735;50.136;11.062;2023-06-19T00:55:17;18.70;99.90
7388;DHT22;3735;50.136;11.062;2023-06-19T00:57:44;18.70;99.90
7388;DHT22;3735;50.136;11.062;2023-06-19T01:00:11;18.70;99.90
7388;DHT22;3735;50.136;11.062;2023-06-19T01:02:38;18.80;99.90
7388;DHT22;3735;50.136;11.062;2023-06-19T01:05:05;18.80;99.90
7388;DHT22;3735;50.136;11.062;2023-06-19T01:07:44;18.80;99.90
7388;DHT22;3735;50.136;11.062;2023-06-19T01:10:24;18.70;99.90
7388;DHT22;3735;50.136;11.062;2023-06-19T01:13:02;18.80;99.90
7388;DHT22;3735;50.136;11.062;2023-06-19T01:15:42;18.70;99.90
7388;DHT22;3735;50.136;11.062;2023-06-19T01:18:09;18.70;99.90
7388;DHT22;3735;50.136;11.062;2023-06-19T01:20:37;18.70;99.90
7388;DHT22;3735;50.136;11.062;2023-06-19T01:23:08;18.60;99.90
7388;DHT22;3735;50.136;11.062;2023-06-19T01:25:34;18.50;99.90
7388;DHT22;3735;50.136;11.062;2023-06-19T01:28:04;18.50;99.90
7388;DHT22;3735;50.136;11.062;2023-06-19T01:30:32;18.50;99.90
7388;DHT22;3735;50.136;11.062;2023-06-19T01:35:43;18.30;99.90
7388;DHT22;3735;50.136;11.062;2023-06-19T01:38:10;18.30;99.90
7388;DHT22;3735;50.136;11.062;2023-06-19T01:40:40;18.30;99.90
7388;DHT22;3735;50.136;11.062;2023-06-19T01:43:08;18.30;99.90
7388;DHT22;3735;50.136;11.062;2023-06-19T01:45:35;18.30;99.90
7388;DHT22;3735;50.136;11.062;2023-06-19T01:48:01;18.20;99.90
7388;DHT22;3735;50.136;11.062;2023-06-19T01:50:27;18.20;99.90
7388;DHT22;3735;50.136;11.062;2023-06-19T01:52:53;18.20;99.90
7388;DHT22;3735;50.136;11.062;2023-06-19T01:55:19;18.20;99.90
7388;DHT22;3735;50.136;11.062;2023-06-19T01:57:46;18.20;99.90
7388;DHT22;3735;50.136;11.062;2023-06-19T02:00:12;18.20;99.90
7388;DHT22;3735;50.136;11.062;2023-06-19T02:02:38;18.20;99.90
7388;DHT22;3735;50.136;11.062;2023-06-19T02:05:04;18.40;99.90
7388;DHT22;3735;50.136;11.062;2023-06-19T02:07:31;18.40;99.90
7388;DHT22;3735;50.136;11.062;2023-06-19T02:09:57;18.30;99.90
7388;DHT22;3735;50.136;11.062;2023-06-19T02:12:23;18.30;99.90
7388;DHT22;3735;50.136;11.062;2023-06-19T02:14:48;18.20;99.90
7388;DHT22;3735;50.136;11.062;2023-06-19T02:17:14;18.10;99.90
7388;DHT22;3735;50.136;11.062;2023-06-19T02:19:40;18.00;99.90
7388;DHT22;3735;50.136;11.062;2023-06-19T02:22:06;17.90;99.90
7388;DHT22;3735;50.136;11.062;2023-06-19T02:24:32;17.90;99.90
7388;DHT22;3735;50.136;11.062;2023-06-19T02:26:58;17.80;99.90
7388;DHT22;3735;50.136;11.062;2023-06-19T02:29:24;17.80;99.90
7388;DHT22;3735;50.136;11.062;2023-06-19T02:31:50;17.80;99.90
7388;DHT22;3735;50.136;11.062;2023-06-19T02:34:17;17.90;99.90
7388;DHT22;3735;50.136;11.062;2023-06-19T02:36:43;17.90;99.90
7388;DHT22;3735;50.136;11.062;2023-06-19T02:39:09;17.80;99.90
7388;DHT22;3735;50.136;11.062;2023-06-19T02:41:35;17.80;99.90
7388;DHT22;3735;50.136;11.062;2023-06-19T02:44:01;17.80;99.90
7388;DHT22;3735;50.136;11.062;2023-06-19T02:46:27;17.70;99.90
7388;DHT22;3735;50.136;11.062;2023-06-19T02:48:53;17.60;99.90
7388;DHT22;3735;50.136;11.062;2023-06-19T02:51:18;17.60;99.90
7388;DHT22;3735;50.136;11.062;2023-06-19T02:53:44;17.50;99.90
7388;DHT22;3735;50.136;11.062;2023-06-19T02:56:11;17.50;99.90
7388;DHT22;3735;50.136;11.062;2023-06-19T02:58:37;17.50;99.90
7388;DHT22;3735;50.136;11.062;2023-06-19T03:01:04;17.60;99.90
7388;DHT22;3735;50.136;11.062;2023-06-19T03:03:33;17.60;99.90
7388;DHT22;3735;50.136;11.062;2023-06-19T03:06:07;17.60;99.90
7388;DHT22;3735;50.136;11.062;2023-06-19T03:08:37;17.60;99.90
7388;DHT22;3735;50.136;11.062;2023-06-19T03:11:03;17.50;99.90
7388;DHT22;3735;50.136;11.062;2023-06-19T03:13:53;17.60;99.90
7388;DHT22;3735;50.136;11.062;2023-06-19T03:16:20;17.60;99.90
7388;DHT22;3735;50.136;11.062;2023-06-19T03:18:46;17.60;99.90
7388;DHT22;3735;50.136;11.062;2023-06-19T03:21:13;17.50;99.90
7388;DHT22;3735;50.136;11.062;2023-06-19T03:23:40;17.50;99.90
7388;DHT22;3735;50.136;11.062;2023-06-19T03:26:07;17.50;99.90
7388;DHT22;3735;50.136;11.062;2023-06-19T03:28:33;17.40;99.90
7388;DHT22;3735;50.136;11.062;2023-06-19T03:30:59;17.40;99.90
7388;DHT22;3735;50.136;11.062;2023-06-19T03:33:26;17.30;99.90
7388;DHT22;3735;50.136;11.062;2023-06-19T03:35:52;17.30;99.90
7388;DHT22;3735;50.136;11.062;2023-06-19T03:38:17;17.30;99.90
7388;DHT22;3735;50.136;11.062;2023-06-19T03:40:43;17.30;99.90
7388;DHT22;3735;50.136;11.062;2023-06-19T03:43:09;17.30;99.90
7388;DHT22;3735;50.136;11.062;2023-06-19T03:45:36;17.20;99.90
7388;DHT22;3735;50.136;11.062;2023-06-19T03:48:02;17.20;99.90
7388;DHT22;3735;50.136;11.062;2023-06-19T03:50:28;17.10;99.90
7388;DHT22;3735;50.136;11.062;2023-06-19T03:52:54;17.10;99.90
7388;DHT22;3735;50.136;11.062;2023-06-19T03:55:19;17.10;99.90
7388;DHT22;3735;50.136;11.062;2023-06-19T03:57:45;17.10;99.90
7388;DHT22;3735;50.136;11.062;2023-06-19T04:00:11;17.10;99.90
7388;DHT22;3735;50.136;11.062;2023-06-19T04:02:39;17.10;99.90
7388;DHT22;3735;50.136;11.062;2023-06-19T04:05:06;17.10;99.90
7388;DHT22;3735;50.136;11.062;2023-06-19T04:07:32;17.20;99.90
7388;DHT22;3735;50.136;11.062;2023-06-19T04:09:58;17.20;99.90
7388;DHT22;3735;50.136;11.062;2023-06-19T04:12:24;17.20;99.90
7388;DHT22;3735;50.136;11.062;2023-06-19T04:14:50;17.30;99.90
7388;DHT22;3735;50.136;11.062;2023-06-19T04:17:16;17.30;99.90
7388;DHT22;3735;50.136;11.062;2023-06-19T04:19:42;17.40;99.90
7388;DHT22;3735;50.136;11.062;2023-06-19T04:22:08;17.50;99.90
7388;DHT22;3735;50.136;11.062;2023-06-19T04:24:35;17.50;99.90
7388;DHT22;3735;50.136;11.062;2023-06-19T04:27:01;17.60;99.90
7388;DHT22;3735;50.136;11.062;2023-06-19T04:29:27;17.60;99.90
7388;DHT22;3735;50.136;11.062;2023-06-19T04:31:58;17.70;99.90
7388;DHT22;3735;50.136;11.062;2023-06-19T04:34:24;17.70;99.90
7388;DHT22;3735;50.136;11.062;2023-06-19T04:36:51;17.80;99.90
7388;DHT22;3735;50.136;11.062;2023-06-19T04:39:17;18.00;99.90
7388;DHT22;3735;50.136;11.062;2023-06-19T04:41:43;18.50;99.90
7388;DHT22;3735;50.136;11.062;2023-06-19T04:44:10;18.90;99.90
7388;DHT22;3735;50.136;11.062;2023-06-19T04:46:41;19.10;99.90
7388;DHT22;3735;50.136;11.062;2023-06-19T04:49:09;19.20;99.90
7388;DHT22;3735;50.136;11.062;2023-06-19T04:51:35;19.20;99.90
7388;DHT22;3735;50.136;11.062;2023-06-19T04:54:02;19.30;99.90
7388;DHT22;3735;50.136;11.062;2023-06-19T04:56:28;19.40;99.90
7388;DHT22;3735;50.136;11.062;2023-06-19T04:58:55;20.10;99.90
7388;DHT22;3735;50.136;11.062;2023-06-19T05:01:25;21.00;99.90
7388;DHT22;3735;50.136;11.062;2023-06-19T05:03:56;21.90;99.90
7388;DHT22;3735;50.136;11.062;2023-06-19T05:06:25;22.60;99.90
7388;DHT22;3735;50.136;11.062;2023-06-19T05:08:51;23.20;99.90
7388;DHT22;3735;50.136;11.062;2023-06-19T05:11:17;23.80;99.90
7388;DHT22;3735;50.136;11.062;2023-06-19T05:13:43;24.60;99.90
7388;DHT22;3735;50.136;11.062;2023-06-19T05:16:09;25.30;99.90
7388;DHT22;3735;50.136;11.062;2023-06-19T05:18:35;25.90;99.90
7388;DHT22;3735;50.136;11.062;2023-06-19T05:21:01;26.30;99.90
7388;DHT22;3735;50.136;11.062;2023-06-19T05:23:27;26.90;99.90
7388;DHT22;3735;50.136;11.062;2023-06-19T05:25:52;27.70;99.90
7388;DHT22;3735;50.136;11.062;2023-06-19T05:28:18;28.30;99.90
7388;DHT22;3735;50.136;11.062;2023-06-19T05:30:44;28.70;99.90
7388;DHT22;3735;50.136;11.062;2023-06-19T05:33:10;29.40;99.90
7388;DHT22;3735;50.136;11.062;2023-06-19T05:35:42;29.90;99.90
7388;DHT22;3735;50.136;11.062;2023-06-19T05:38:08;30.30;99.90
7388;DHT22;3735;50.136;11.062;2023-06-19T05:40:34;30.30;99.90
7388;DHT22;3735;50.136;11.062;2023-06-19T05:43:01;29.80;99.90
7388;DHT22;3735;50.136;11.062;2023-06-19T05:45:27;29.10;99.90
7388;DHT22;3735;50.136;11.062;2023-06-19T05:47:52;28.50;99.90
7388;DHT22;3735;50.136;11.062;2023-06-19T05:50:18;27.90;99.90
7388;DHT22;3735;50.136;11.062;2023-06-19T05:52:44;27.50;99.90
7388;DHT22;3735;50.136;11.062;2023-06-19T05:55:10;27.00;99.90
7388;DHT22;3735;50.136;11.062;2023-06-19T05:57:37;26.80;99.90
7388;DHT22;3735;50.136;11.062;2023-06-19T06:00:04;26.70;99.90
7388;DHT22;3735;50.136;11.062;2023-06-19T06:02:31;26.60;99.90
7388;DHT22;3735;50.136;11.062;2023-06-19T06:04:57;26.50;99.90
7388;DHT22;3735;50.136;11.062;2023-06-19T06:07:22;26.40;99.90
7388;DHT22;3735;50.136;11.062;2023-06-19T06:09:48;26.40;99.90
7388;DHT22;3735;50.136;11.062;2023-06-19T06:12:14;26.30;99.90
7388;DHT22;3735;50.136;11.062;2023-06-19T06:14:43;26.30;99.90
7388;DHT22;3735;50.136;11.062;2023-06-19T06:17:08;26.20;99.90
7388;DHT22;3735;50.136;11.062;2023-06-19T06:19:35;26.10;99.90
7388;DHT22;3735;50.136;11.062;2023-06-19T06:22:02;26.10;99.90
7388;DHT22;3735;50.136;11.062;2023-06-19T06:24:28;26.20;99.90
7388;DHT22;3735;50.136;11.062;2023-06-19T06:26:54;26.10;99.90
7388;DHT22;3735;50.136;11.062;2023-06-19T06:29:20;25.70;99.90
7388;DHT22;3735;50.136;11.062;2023-06-19T06:31:46;25.40;99.90
7388;DHT22;3735;50.136;11.062;2023-06-19T06:34:13;25.10;99.90
7388;DHT22;3735;50.136;11.062;2023-06-19T06:36:39;24.80;99.90
7388;DHT22;3735;50.136;11.062;2023-06-19T06:39:05;24.50;99.90
7388;DHT22;3735;50.136;11.062;2023-06-19T06:41:31;24.30;99.90
7388;DHT22;3735;50.136;11.062;2023-06-19T06:43:57;24.20;99.90
7388;DHT22;3735;50.136;11.062;2023-06-19T06:46:23;24.10;99.90
7388;DHT22;3735;50.136;11.062;2023-06-19T06:48:49;23.90;99.90
7388;DHT22;3735;50.136;11.062;2023-06-19T06:51:15;23.90;99.90
7388;DHT22;3735;50.136;11.062;2023-06-19T06:53:41;23.80;99.90
7388;DHT22;3735;50.136;11.062;2023-06-19T06:56:07;23.80;99.90
7388;DHT22;3735;50.136;11.062;2023-06-19T06:58:32;23.70;99.90
7388;DHT22;3735;50.136;11.062;2023-06-19T07:00:58;23.60;99.90
7388;DHT22;3735;50.136;11.062;2023-06-19T07:03:24;23.70;99.90
7388;DHT22;3735;50.136;11.062;2023-06-19T07:05:49;23.70;99.90
7388;DHT22;3735;50.136;11.062;2023-06-19T07:08:15;23.80;99.90
7388;DHT22;3735;50.136;11.062;2023-06-19T07:10:41;23.80;99.90
7388;DHT22;3735;50.136;11.062;2023-06-19T07:13:07;24.00;99.90
7388;DHT22;3735;50.136;11.062;2023-06-19T07:15:33;24.10;99.90
7388;DHT22;3735;50.136;11.062;2023-06-19T07:17:58;24.40;99.90
7388;DHT22;3735;50.136;11.062;2023-06-19T07:20:24;24.70;99.90
7388;DHT22;3735;50.136;11.062;2023-06-19T07:22:51;24.90;99.90
7388;DHT22;3735;50.136;11.062;2023-06-19T07:25:18;25.00;99.90
7388;DHT22;3735;50.136;11.062;2023-06-19T07:27:45;25.10;99.90
7388;DHT22;3735;50.136;11.062;2023-06-19T07:30:11;25.40;99.90
7388;DHT22;3735;50.136;11.062;2023-06-19T07:32:37;25.50;99.90
7388;DHT22;3735;50.136;11.062;2023-06-19T07:35:04;25.60;99.90
7388;DHT22;3735;50.136;11.062;2023-06-19T07:37:30;25.70;99.90
7388;DHT22;3735;50.136;11.062;2023-06-19T07:39:56;25.70;99.90
7388;DHT22;3735;50.136;11.062;2023-06-19T07:42:22;25.60;99.90
7388;DHT22;3735;50.136;11.062;2023-06-19T07:44:48;25.60;99.90
7388;DHT22;3735;50.136;11.062;2023-06-19T07:47:16;25.70;99.90
7388;DHT22;3735;50.136;11.062;2023-06-19T07:49:43;25.80;99.90
7388;DHT22;3735;50.136;11.062;2023-06-19T07:52:09;25.90;99.90
7388;DHT22;3735;50.136;11.062;2023-06-19T07:54:35;25.90;99.90
7388;DHT22;3735;50.136;11.062;2023-06-19T07:57:01;26.00;99.90
7388;DHT22;3735;50.136;11.062;2023-06-19T07:59:27;25.90;99.90
7388;DHT22;3735;50.136;11.062;2023-06-19T08:01:53;25.70;99.90
7388;DHT22;3735;50.136;11.062;2023-06-19T08:04:19;25.70;99.90
7388;DHT22;3735;50.136;11.062;2023-06-19T08:06:44;25.60;99.90
7388;DHT22;3735;50.136;11.062;2023-06-19T08:09:10;25.50;99.90
7388;DHT22;3735;50.136;11.062;2023-06-19T08:11:36;25.40;99.90
7388;DHT22;3735;50.136;11.062;2023-06-19T08:14:02;25.10;99.90
7388;DHT22;3735;50.136;11.062;2023-06-19T08:16:28;25.00;99.90
7388;DHT22;3735;50.136;11.062;2023-06-19T08:18:54;24.90;99.90
7388;DHT22;3735;50.136;11.062;2023-06-19T08:21:20;24.80;99.90
7388;DHT22;3735;50.136;11.062;2023-06-19T08:23:47;24.80;99.90
7388;DHT22;3735;50.136;11.062;2023-06-19T08:26:14;24.80;99.90
7388;DHT22;3735;50.136;11.062;2023-06-19T08:28:39;24.80;99.90
7388;DHT22;3735;50.136;11.062;2023-06-19T08:31:11;24.80;99.90
7388;DHT22;3735;50.136;11.062;2023-06-19T08:33:37;24.80;99.90
7388;DHT22;3735;50.136;11.062;2023-06-19T08:36:03;24.70;99.90
7388;DHT22;3735;50.136;11.062;2023-06-19T08:38:29;24.70;99.90
7388;DHT22;3735;50.136;11.062;2023-06-19T08:40:55;24.70;99.90
7388;DHT22;3735;50.136;11.062;2023-06-19T08:43:21;24.70;99.90
7388;DHT22;3735;50.136;11.062;2023-06-19T08:48:39;24.80;99.90
7388;DHT22;3735;50.136;11.062;2023-06-19T08:51:05;24.80;99.90
7388;DHT22;3735;50.136;11.062;2023-06-19T08:53:35;25.00;99.90
7388;DHT22;3735;50.136;11.062;2023-06-19T08:56:08;25.20;99.90
7388;DHT22;3735;50.136;11.062;2023-06-19T08:58:34;25.30;99.90
7388;DHT22;3735;50.136;11.062;2023-06-19T09:01:00;25.40;99.90
7388;DHT22;3735;50.136;11.062;2023-06-19T09:03:26;25.50;99.90
7388;DHT22;3735;50.136;11.062;2023-06-19T09:05:51;25.50;99.90
7388;DHT22;3735;50.136;11.062;2023-06-19T09:08:21;25.50;99.90
7388;DHT22;3735;50.136;11.062;2023-06-19T09:11:04;25.60;99.90
7388;DHT22;3735;50.136;11.062;2023-06-19T09:13:31;25.70;99.90
7388;DHT22;3735;50.136;11.062;2023-06-19T09:18:29;25.70;99.90
7388;DHT22;3735;50.136;11.062;2023-06-19T09:20:57;25.60;99.90
7388;DHT22;3735;50.136;11.062;2023-06-19T09:23:24;25.40;99.90
7388;DHT22;3735;50.136;11.062;2023-06-19T09:25:52;25.40;99.90
7388;DHT22;3735;50.136;11.062;2023-06-19T09:28:24;25.40;99.90
7388;DHT22;3735;50.136;11.062;2023-06-19T09:30:58;25.30;99.90
7388;DHT22;3735;50.136;11.062;2023-06-19T09:33:32;25.20;99.90
7388;DHT22;3735;50.136;11.062;2023-06-19T09:36:01;25.10;99.90
7388;DHT22;3735;50.136;11.062;2023-06-19T09:38:34;25.10;99.90
7388;DHT22;3735;50.136;11.062;2023-06-19T09:41:06;25.10;99.90
7388;DHT22;3735;50.136;11.062;2023-06-19T09:43:41;25.20;99.90
7388;DHT22;3735;50.136;11.062;2023-06-19T09:46:10;25.40;99.90
7388;DHT22;3735;50.136;11.062;2023-06-19T09:48:42;25.60;99.90
7388;DHT22;3735;50.136;11.062;2023-06-19T09:51:18;26.00;99.90
7388;DHT22;3735;50.136;11.062;2023-06-19T09:53:46;26.20;99.90
7388;DHT22;3735;50.136;11.062;2023-06-19T09:56:14;26.40;99.90
7388;DHT22;3735;50.136;11.062;2023-06-19T09:58:42;26.50;99.90
7388;DHT22;3735;50.136;11.062;2023-06-19T10:01:12;26.70;99.90
7388;DHT22;3735;50.136;11.062;2023-06-19T10:03:40;26.90;99.90
7388;DHT22;3735;50.136;11.062;2023-06-19T10:06:06;27.30;99.90
7388;DHT22;3735;50.136;11.062;2023-06-19T10:08:39;27.40;99.90
7388;DHT22;3735;50.136;11.062;2023-06-19T10:11:06;27.70;99.90
7388;DHT22;3735;50.136;11.062;2023-06-19T10:13:34;28.10;99.90
7388;DHT22;3735;50.136;11.062;2023-06-19T10:16:02;28.40;99.90
7388;DHT22;3735;50.136;11.062;2023-06-19T10:18:28;28.80;99.90
7388;DHT22;3735;50.136;11.062;2023-06-19T10:20:54;30.10;99.90
7388;DHT22;3735;50.136;11.062;2023-06-19T10:23:23;32.40;99.90
7388;DHT22;3735;50.136;11.062;2023-06-19T10:25:57;34.40;99.90
7388;DHT22;3735;50.136;11.062;2023-06-19T10:28:25;35.90;99.90
7388;DHT22;3735;50.136;11.062;2023-06-19T10:33:37;36.40;99.90
7388;DHT22;3735;50.136;11.062;2023-06-19T10:36:20;36.80;99.90
7388;DHT22;3735;50.136;11.062;2023-06-19T10:38:49;37.70;99.90
7388;DHT22;3735;50.136;11.062;2023-06-19T10:41:22;38.30;99.90
7388;DHT22;3735;50.136;11.062;2023-06-19T10:43:59;38.00;99.90
7388;DHT22;3735;50.136;11.062;2023-06-19T10:46:33;37.50;99.90
7388;DHT22;3735;50.136;11.062;2023-06-19T10:49:02;37.10;99.90
7388;DHT22;3735;50.136;11.062;2023-06-19T10:51:40;37.60;99.90
7388;DHT22;3735;50.136;11.062;2023-06-19T10:54:09;38.10;99.90
7388;DHT22;3735;50.136;11.062;2023-06-19T10:56:36;38.70;99.90
7388;DHT22;3735;50.136;11.062;2023-06-19T10:59:07;39.00;99.90
7388;DHT22;3735;50.136;11.062;2023-06-19T11:01:47;38.70;99.90
7388;DHT22;3735;50.136;11.062;2023-06-19T11:04:16;37.60;99.90
7388;DHT22;3735;50.136;11.062;2023-06-19T11:06:43;35.90;99.90
7388;DHT22;3735;50.136;11.062;2023-06-19T11:09:11;34.70;99.90
7388;DHT22;3735;50.136;11.062;2023-06-19T11:11:41;34.10;99.90
7388;DHT22;3735;50.136;11.062;2023-06-19T11:14:12;34.70;99.90
7388;DHT22;3735;50.136;11.062;2023-06-19T11:16:46;35.90;99.90
7388;DHT22;3735;50.136;11.062;2023-06-19T11:19:17;37.00;99.90
7388;DHT22;3735;50.136;11.062;2023-06-19T11:21:49;37.50;99.90
7388;DHT22;3735;50.136;11.062;2023-06-19T11:24:18;37.20;99.90
7388;DHT22;3735;50.136;11.062;2023-06-19T11:26:48;37.60;99.90
7388;DHT22;3735;50.136;11.062;2023-06-19T11:29:22;37.90;99.90
7388;DHT22;3735;50.136;11.062;2023-06-19T11:31:50;38.50;99.90
7388;DHT22;3735;50.136;11.062;2023-06-19T11:34:19;39.00;99.90
7388;DHT22;3735;50.136;11.062;2023-06-19T11:36:45;39.00;99.90
7388;DHT22;3735;50.136;11.062;2023-06-19T11:39:12;37.80;99.90
7388;DHT22;3735;50.136;11.062;2023-06-19T11:41:39;38.00;99.90
7388;DHT22;3735;50.136;11.062;2023-06-19T11:44:07;38.90;99.90
7388;DHT22;3735;50.136;11.062;2023-06-19T11:46:36;39.20;99.90
7388;DHT22;3735;50.136;11.062;2023-06-19T11:49:09;39.20;99.90
7388;DHT22;3735;50.136;11.062;2023-06-19T11:51:40;39.00;99.90
7388;DHT22;3735;50.136;11.062;2023-06-19T11:54:07;39.40;99.90
7388;DHT22;3735;50.136;11.062;2023-06-19T11:56:35;39.20;99.90
7388;DHT22;3735;50.136;11.062;2023-06-19T11:59:02;39.20;99.90
7388;DHT22;3735;50.136;11.062;2023-06-19T12:01:29;39.40;99.90
7388;DHT22;3735;50.136;11.062;2023-06-19T12:03:55;39.00;99.90
7388;DHT22;3735;50.136;11.062;2023-06-19T12:06:21;38.90;99.90
7388;DHT22;3735;50.136;11.062;2023-06-19T12:08:47;39.40;99.90
7388;DHT22;3735;50.136;11.062;2023-06-19T12:11:13;39.70;99.90
7388;DHT22;3735;50.136;11.062;2023-06-19T12:13:42;40.00;99.90
7388;DHT22;3735;50.136;11.062;2023-06-19T12:16:10;39.20;99.90
7388;DHT22;3735;50.136;11.062;2023-06-19T12:18:36;38.60;99.90
7388;DHT22;3735;50.136;11.062;2023-06-19T12:21:03;38.00;99.90
7388;DHT22;3735;50.136;11.062;2023-06-19T12:23:29;37.90;99.90
7388;DHT22;3735;50.136;11.062;2023-06-19T12:25:55;38.20;99.90
7388;DHT22;3735;50.136;11.062;2023-06-19T12:28:21;39.00;99.90
7388;DHT22;3735;50.136;11.062;2023-06-19T12:30:48;39.20;99.90
7388;DHT22;3735;50.136;11.062;2023-06-19T12:33:17;39.20;99.90
7388;DHT22;3735;50.136;11.062;2023-06-19T12:35:44;38.90;99.90
7388;DHT22;3735;50.136;11.062;2023-06-19T12:38:10;38.30;99.90
7388;DHT22;3735;50.136;11.062;2023-06-19T12:40:37;37.60;99.90
7388;DHT22;3735;50.136;11.062;2023-06-19T12:43:03;37.60;99.90
7388;DHT22;3735;50.136;11.062;2023-06-19T12:45:29;38.00;99.90
7388;DHT22;3735;50.136;11.062;2023-06-19T12:47:56;38.50;99.90
7388;DHT22;3735;50.136;11.062;2023-06-19T12:50:22;38.50;99.90
7388;DHT22;3735;50.136;11.062;2023-06-19T12:52:48;38.40;99.90
7388;DHT22;3735;50.136;11.062;2023-06-19T12:55:14;38.20;99.90
7388;DHT22;3735;50.136;11.062;2023-06-19T12:57:40;38.50;99.90
7388;DHT22;3735;50.136;11.062;2023-06-19T13:00:09;38.50;99.90
7388;DHT22;3735;50.136;11.062;2023-06-19T13:02:37;39.00;99.90
7388;DHT22;3735;50.136;11.062;2023-06-19T13:05:08;39.20;99.90
7388;DHT22;3735;50.136;11.062;2023-06-19T13:07:35;39.80;99.90
7388;DHT22;3735;50.136;11.062;2023-06-19T13:10:01;40.20;99.90
7388;DHT22;3735;50.136;11.062;2023-06-19T13:12:27;39.60;99.90
7388;DHT22;3735;50.136;11.062;2023-06-19T13:14:53;39.00;99.90
7388;DHT22;3735;50.136;11.062;2023-06-19T13:17:19;38.80;99.90
7388;DHT22;3735;50.136;11.062;2023-06-19T13:19:48;38.90;99.90
7388;DHT22;3735;50.136;11.062;2023-06-19T13:22:13;38.80;99.90
7388;DHT22;3735;50.136;11.062;2023-06-19T13:24:39;38.40;99.90
7388;DHT22;3735;50.136;11.062;2023-06-19T13:27:05;38.20;99.90
7388;DHT22;3735;50.136;11.062;2023-06-19T13:29:31;38.00;99.90
7388;DHT22;3735;50.136;11.062;2023-06-19T13:31:57;37.90;99.90
7388;DHT22;3735;50.136;11.062;2023-06-19T13:34:23;38.50;99.90
7388;DHT22;3735;50.136;11.062;2023-06-19T13:36:48;39.00;99.90
7388;DHT22;3735;50.136;11.062;2023-06-19T13:39:14;39.00;99.90
7388;DHT22;3735;50.136;11.062;2023-06-19T13:41:40;37.90;99.90
7388;DHT22;3735;50.136;11.062;2023-06-19T13:44:06;36.90;99.90
7388;DHT22;3735;50.136;11.062;2023-06-19T13:46:32;36.10;99.90
7388;DHT22;3735;50.136;11.062;2023-06-19T13:48:58;35.60;99.90
7388;DHT22;3735;50.136;11.062;2023-06-19T13:51:24;35.50;99.90
7388;DHT22;3735;50.136;11.062;2023-06-19T13:53:51;35.60;99.90
7388;DHT22;3735;50.136;11.062;2023-06-19T13:56:17;35.70;99.90
7388;DHT22;3735;50.136;11.062;2023-06-19T13:58:43;35.50;99.90
7388;DHT22;3735;50.136;11.062;2023-06-19T14:01:09;35.30;99.90
7388;DHT22;3735;50.136;11.062;2023-06-19T14:03:37;35.10;99.90
7388;DHT22;3735;50.136;11.062;2023-06-19T14:06:04;35.50;99.90
7388;DHT22;3735;50.136;11.062;2023-06-19T14:08:31;36.00;99.90
7388;DHT22;3735;50.136;11.062;2023-06-19T14:10:57;36.60;99.90
7388;DHT22;3735;50.136;11.062;2023-06-19T14:13:22;36.60;99.90
7388;DHT22;3735;50.136;11.062;2023-06-19T14:15:48;36.60;99.90
7388;DHT22;3735;50.136;11.062;2023-06-19T14:18:14;36.70;99.90
7388;DHT22;3735;50.136;11.062;2023-06-19T14:20:39;36.30;99.90
7388;DHT22;3735;50.136;11.062;2023-06-19T14:23:07;36.00;99.90
7388;DHT22;3735;50.136;11.062;2023-06-19T14:25:34;35.80;99.90
7388;DHT22;3735;50.136;11.062;2023-06-19T14:27:59;35.80;99.90
7388;DHT22;3735;50.136;11.062;2023-06-19T14:30:25;35.70;99.90
7388;DHT22;3735;50.136;11.062;2023-06-19T14:32:51;35.30;99.90
7388;DHT22;3735;50.136;11.062;2023-06-19T14:35:17;34.90;99.90
7388;DHT22;3735;50.136;11.062;2023-06-19T14:37:43;35.20;99.90
7388;DHT22;3735;50.136;11.062;2023-06-19T14:40:09;35.80;99.90
7388;DHT22;3735;50.136;11.062;2023-06-19T14:42:35;36.30;99.90
7388;DHT22;3735;50.136;11.062;2023-06-19T14:45:01;36.60;99.90
7388;DHT22;3735;50.136;11.062;2023-06-19T14:47:27;36.70;99.90
7388;DHT22;3735;50.136;11.062;2023-06-19T14:49:53;37.00;99.90
7388;DHT22;3735;50.136;11.062;2023-06-19T14:52:19;37.20;99.90
7388;DHT22;3735;50.136;11.062;2023-06-19T14:54:46;37.30;99.90
7388;DHT22;3735;50.136;11.062;2023-06-19T14:57:12;37.60;99.90
7388;DHT22;3735;50.136;11.062;2023-06-19T14:59:38;37.60;99.90
7388;DHT22;3735;50.136;11.062;2023-06-19T15:02:04;37.10;99.90
7388;DHT22;3735;50.136;11.062;2023-06-19T15:04:32;36.90;99.90
7388;DHT22;3735;50.136;11.062;2023-06-19T15:06:59;36.70;99.90
7388;DHT22;3735;50.136;11.062;2023-06-19T15:09:25;36.40;99.90
7388;DHT22;3735;50.136;11.062;2023-06-19T15:11:54;36.40;99.90
7388;DHT22;3735;50.136;11.062;2023-06-19T15:14:19;36.10;99.90
7388;DHT22;3735;50.136;11.062;2023-06-19T15:16:46;36.00;99.90
7388;DHT22;3735;50.136;11.062;2023-06-19T15:19:11;36.10;99.90
7388;DHT22;3735;50.136;11.062;2023-06-19T15:21:37;36.10;99.90
7388;DHT22;3735;50.136;11.062;2023-06-19T15:24:03;36.30;99.90
7388;DHT22;3735;50.136;11.062;2023-06-19T15:26:29;36.50;99.90
7388;DHT22;3735;50.136;11.062;2023-06-19T15:28:55;36.40;99.90
7388;DHT22;3735;50.136;11.062;2023-06-19T15:31:22;36.20;99.90
7388;DHT22;3735;50.136;11.062;2023-06-19T15:33:49;35.90;99.90
7388;DHT22;3735;50.136;11.062;2023-06-19T15:36:15;35.50;99.90
7388;DHT22;3735;50.136;11.062;2023-06-19T15:38:41;35.00;99.90
7388;DHT22;3735;50.136;11.062;2023-06-19T15:41:08;34.40;99.90
7388;DHT22;3735;50.136;11.062;2023-06-19T15:43:34;33.90;99.90
7388;DHT22;3735;50.136;11.062;2023-06-19T15:46:00;33.50;99.90
7388;DHT22;3735;50.136;11.062;2023-06-19T15:48:27;32.90;99.90
7388;DHT22;3735;50.136;11.062;2023-06-19T15:50:54;32.50;99.90
7388;DHT22;3735;50.136;11.062;2023-06-19T15:53:20;32.30;99.90
7388;DHT22;3735;50.136;11.062;2023-06-19T15:55:46;32.10;99.90